Time;durP1;ratioP1;P1;durP2;ratioP2;P2;SDS_P1;SDS_P2;PMS_P1;PMS_P2;Temp;Humidity;BMP_temperature;BMP_pressure;BME280_temperature;BME280_humidity;BME280_pressure;Samples;Min_cycle;Max_cycle;Signal;HPM_P1;HPM_P2
2022/09/01 03:32:19;;;;;;;;;;;;;;;10.14;100.00;99816.75;6122420;22;19983;-86
2022/09/01 03:34:44;;;;;;;;;;;;;;;10.05;100.00;99815.34;6275655;22;19915;-85
2022/09/01 03:37:11;;;;;;;;;;;;;;;10.29;100.00;99815.25;6277012;22;19922;-88
2022/09/01 03:39:36;;;;;;;;;;;;;;;10.15;100.00;99811.38;6277507;22;20333;-85
2022/09/01 03:42:02;;;;;;;;;;;;;;;10.08;100.00;99822.28;6276849;22;19947;-85
2022/09/01 03:44:32;;;;;;;;;;;;;;;10.20;100.00;99824.44;6276877;22;19916;-85
2022/09/01 03:47:00;;;;;;;;;;;;;;;10.21;100.00;99820.00;6275305;22;20301;-85
2022/09/01 03:49:26;;;;;;;;;;;;;;;10.14;100.00;99824.69;6275152;22;19912;-85
2022/09/01 03:51:56;;;;;;;;;;;;;;;10.21;100.00;99812.94;6250036;22;19911;-87
2022/09/01 03:54:26;;;;;;;;;;;;;;;10.30;100.00;99807.22;6275002;22;19916;-85
2022/09/01 03:56:53;;;;;;;;;;;;;;;10.16;100.00;99810.47;6275225;22;20110;-86
2022/09/01 03:59:21;;;;;;;;;;;;;;;10.13;100.00;99804.41;6276648;22;19915;-85
2022/09/01 04:01:47;;;;;;;;;;;;;;;10.34;100.00;99800.06;6248361;22;20296;-85
2022/09/01 04:04:15;;;;;;;;;;;;;;;10.30;100.00;99801.09;6276115;22;19919;-85
2022/09/01 04:06:42;;;;;;;;;;;;;;;10.16;100.00;99797.22;6276641;22;19938;-85
2022/09/01 04:09:09;;;;;;;;;;;;;;;10.32;100.00;99794.84;6276638;22;19911;-85
2022/09/01 04:11:43;;;;;;;;;;;;;;;10.36;100.00;99800.88;6276525;22;19918;-85
2022/09/01 04:14:09;;;;;;;;;;;;;;;10.20;100.00;99803.25;6276496;22;19918;-85
2022/09/01 04:19:29;;;;;;;;;;;;;;;10.33;100.00;99809.78;6276416;22;19953;-85
2022/09/01 04:21:58;;;;;;;;;;;;;;;10.30;100.00;99803.72;6249866;22;20315;-85
2022/09/01 04:24:26;;;;;;;;;;;;;;;10.18;100.00;99807.75;6276399;22;19985;-85
2022/09/01 04:26:55;;;;;;;;;;;;;;;10.23;100.00;99802.25;6276367;22;20255;-85
2022/09/01 04:29:30;;;;;;;;;;;;;;;10.33;100.00;99799.19;6275264;22;19922;-85
2022/09/01 04:32:00;;;;;;;;;;;;;;;10.26;100.00;99800.34;6274706;22;19911;-85
2022/09/01 04:34:26;;;;;;;;;;;;;;;10.23;100.00;99807.53;6275983;22;19915;-83
2022/09/01 07:52:07;;;;;;;;;;;;;;;10.17;100.00;99827.22;6093877;22;20619;-92
2022/09/01 07:54:36;;;;;;;;;;;;;;;10.24;100.00;99827.81;6274597;22;20341;-92
2022/09/01 07:57:01;;;;;;;;;;;;;;;10.27;100.00;99823.25;6277734;22;19919;-92
2022/09/01 07:59:28;;;;;;;;;;;;;;;10.11;100.00;99823.00;6250736;22;19915;-93
2022/09/01 08:01:54;;;;;;;;;;;;;;;10.28;100.00;99826.78;6251265;22;19918;-93
2022/09/01 08:04:21;;;;;;;;;;;;;;;10.40;100.00;99812.19;6250812;22;20319;-90
2022/09/01 08:06:47;;;;;;;;;;;;;;;10.12;100.00;99815.94;6249640;22;19919;-93
2022/09/01 08:09:13;;;;;;;;;;;;;;;10.23;100.00;99821.66;6278041;22;19911;-92
2022/09/01 08:11:38;;;;;;;;;;;;;;;10.13;100.00;99830.88;6277792;22;19922;-93
2022/09/01 08:14:03;;;;;;;;;;;;;;;10.00;100.00;99830.53;6277655;22;19918;-93
2022/09/01 08:16:30;;;;;;;;;;;;;;;10.14;100.00;99819.38;6250926;22;19915;-92
2022/09/01 08:18:55;;;;;;;;;;;;;;;10.03;100.00;99821.59;6278916;22;20025;-93
2022/09/01 08:21:22;;;;;;;;;;;;;;;9.99;100.00;99821.72;6249630;22;19942;-95
2022/09/01 08:23:55;;;;;;;;;;;;;;;10.22;100.00;99824.38;6250321;22;19965;-92
2022/09/01 08:26:23;;;;;;;;;;;;;;;10.26;100.00;99820.66;6275708;22;19997;-89
2022/09/01 08:28:48;;;;;;;;;;;;;;;10.02;100.00;99819.88;6278071;22;19915;-89
2022/09/01 08:31:16;;;;;;;;;;;;;;;10.44;100.00;99813.78;6250336;22;19946;-92
2022/09/01 08:33:42;;;;;;;;;;;;;;;10.30;100.00;99820.47;6277176;22;19918;-92
2022/09/01 08:36:08;;;;;;;;;;;;;;;10.07;100.00;99825.84;6275896;22;19935;-93
2022/09/01 08:38:42;;;;;;;;;;;;;;;10.17;100.00;99825.41;6278275;22;19911;-92
2022/09/01 08:41:16;;;;;;;;;;;;;;;10.32;100.00;99823.06;6277368;22;19911;-91
2022/09/01 08:43:41;;;;;;;;;;;;;;;10.15;100.00;99823.78;6277167;22;20231;-93
2022/09/01 08:46:18;;;;;;;;;;;;;;;10.39;100.00;99821.03;6276857;22;19912;-92
2022/09/01 08:48:47;;;;;;;;;;;;;;;10.43;100.00;99818.22;6276522;22;19915;-92
2022/09/01 08:51:18;;;;;;;;;;;;;;;10.34;100.00;99826.56;6274536;22;19915;-94
2022/09/01 08:53:52;;;;;;;;;;;;;;;10.13;100.00;99820.31;6277349;22;19996;-93
2022/09/01 08:56:18;;;;;;;;;;;;;;;10.29;100.00;99824.06;6276407;22;19912;-90
2022/09/01 08:58:43;;;;;;;;;;;;;;;10.47;100.00;99814.53;6275979;22;19922;-91
2022/09/01 09:01:19;;;;;;;;;;;;;;;10.29;100.00;99815.25;6276514;22;20250;-91
2022/09/01 09:03:58;;;;;;;;;;;;;;;10.29;100.00;99815.25;6249306;22;19972;-92
2022/09/01 09:06:28;;;;;;;;;;;;;;;10.53;100.00;99813.41;6274918;22;19912;-92
2022/09/01 09:08:56;;;;;;;;;;;;;;;10.43;100.00;99802.31;6250121;22;19943;-93
2022/09/01 09:11:28;;;;;;;;;;;;;;;10.31;100.00;99806.31;6249771;22;19922;-90
2022/09/01 09:13:56;;;;;;;;;;;;;;;10.35;100.00;99800.00;6276622;22;19917;-89
2022/09/01 09:16:24;;;;;;;;;;;;;;;10.59;100.00;99801.69;6276460;22;19934;-95
2022/09/01 09:18:56;;;;;;;;;;;;;;;10.48;100.00;99800.34;6276955;22;19907;-94
2022/09/01 09:21:24;;;;;;;;;;;;;;;10.42;100.00;99805.03;6248424;22;19938;-94
2022/09/01 09:23:55;;;;;;;;;;;;;;;10.44;100.00;99803.19;6249969;22;19907;-94
2022/09/01 09:26:21;;;;;;;;;;;;;;;10.69;100.00;99798.56;6277372;22;20250;-95
2022/09/01 09:28:58;;;;;;;;;;;;;;;10.30;100.00;99790.50;6276290;22;19912;-90
2022/09/01 09:31:25;;;;;;;;;;;;;;;10.42;100.00;99790.03;6277666;22;19989;-94
2022/09/01 09:33:50;;;;;;;;;;;;;;;10.69;100.00;99793.28;6250269;22;19911;-96
2022/09/01 09:36:20;;;;;;;;;;;;;;;10.65;100.00;99796.13;6274127;22;20372;-94
2022/09/01 09:38:45;;;;;;;;;;;;;;;10.30;100.00;99788.69;6250681;22;19911;-95
2022/09/01 09:41:14;;;;;;;;;;;;;;;10.54;100.00;99785.97;6276045;22;19993;-92
2022/09/01 09:43:47;;;;;;;;;;;;;;;10.48;100.00;99786.22;6275733;22;20334;-94
2022/09/01 09:46:20;;;;;;;;;;;;;;;10.75;100.00;99775.38;6249920;22;19959;-93
2022/09/01 09:48:45;;;;;;;;;;;;;;;10.53;100.00;99781.63;6250736;22;19915;-95
2022/09/01 09:51:21;;;;;;;;;;;;;;;10.44;100.00;99782.00;6276092;22;19919;-95
2022/09/01 09:53:47;;;;;;;;;;;;;;;10.34;100.00;99777.09;6249842;22;19994;-95
2022/09/01 09:57:04;;;;;;;;;;;;;;;10.29;100.00;99781.69;6278719;22;19957;-88
2022/09/01 09:59:30;;;;;;;;;;;;;;;10.59;100.00;99783.13;6271273;22;19986;-94
2022/09/01 10:02:14;;;;;;;;;;;;;;;10.81;100.00;99780.41;6250064;22;20330;-94
2022/09/01 10:04:40;;;;;;;;;;;;;;;10.49;100.00;99775.56;6276157;22;19915;-95
2022/09/01 10:07:23;;;;;;;;;;;;;;;10.31;100.00;99776.34;6275837;22;19946;-96
2022/09/01 10:09:48;;;;;;;;;;;;;;;10.49;100.00;99777.38;6275979;22;19911;-95
2022/09/01 10:12:14;;;;;;;;;;;;;;;10.53;100.00;99771.03;6249936;22;19991;-92
2022/09/01 10:14:49;;;;;;;;;;;;;;;10.57;100.00;99769.94;6250452;22;19915;-90
2022/09/01 10:17:16;;;;;;;;;;;;;;;10.40;100.00;99764.50;6249958;22;19964;-95
2022/09/01 10:20:03;;;;;;;;;;;;;;;10.51;100.00;99763.16;6250075;22;19949;-92
2022/09/01 10:22:29;;;;;;;;;;;;;;;10.49;100.00;99764.97;6248127;22;19919;-93
2022/09/01 10:24:54;;;;;;;;;;;;;;;10.44;100.00;99768.75;6249442;22;20243;-92
2022/09/01 10:27:24;;;;;;;;;;;;;;;10.62;100.00;99759.16;6250093;22;19915;-95
2022/09/01 10:30:01;;;;;;;;;;;;;;;10.56;100.00;99760.25;6277504;22;19982;-91
2022/09/01 10:35:36;;;;;;;;;;;;;;;10.46;100.00;99756.31;6262791;22;19943;-90
2022/09/01 10:38:21;;;;;;;;;;;;;;;10.52;100.00;99764.84;6273799;22;20243;-93
2022/09/01 10:40:49;;;;;;;;;;;;;;;10.83;100.00;99758.22;6248991;22;19911;-91
2022/09/01 10:43:32;;;;;;;;;;;;;;;10.58;100.00;99761.09;6276434;22;19911;-91
2022/09/01 10:46:26;;;;;;;;;;;;;;;10.44;100.00;99759.03;6249086;22;20386;-88
2022/09/01 10:48:52;;;;;;;;;;;;;;;10.52;100.00;99758.69;6275102;22;19986;-91
2022/09/01 10:51:17;;;;;;;;;;;;;;;10.65;100.00;99754.56;6274492;22;20763;-88
2022/09/01 10:53:49;;;;;;;;;;;;;;;10.78;100.00;99749.59;6275760;22;19911;-92
2022/09/01 10:56:20;;;;;;;;;;;;;;;10.53;100.00;99750.69;6276389;22;19919;-91
2022/09/01 10:58:58;;;;;;;;;;;;;;;10.68;100.00;99749.16;6276375;22;19919;-91
2022/09/01 11:01:39;;;;;;;;;;;;;;;10.77;100.00;99747.00;6276667;22;19911;-92
2022/09/01 11:04:05;;;;;;;;;;;;;;;10.57;100.00;99753.19;6276702;22;19912;-90
2022/09/01 11:06:53;;;;;;;;;;;;;;;10.63;100.00;99761.75;6274686;22;19946;-90
2022/09/01 11:09:19;;;;;;;;;;;;;;;10.80;100.00;99754.81;6250179;22;20217;-93
2022/09/01 11:12:02;;;;;;;;;;;;;;;10.70;100.00;99751.72;6277465;22;19958;-91
2022/09/01 11:14:34;;;;;;;;;;;;;;;10.51;100.00;99741.06;6277861;22;20315;-93
2022/09/01 11:17:14;;;;;;;;;;;;;;;10.36;100.00;99738.16;6252677;22;19979;-92
2022/09/01 11:19:46;;;;;;;;;;;;;;;10.52;100.00;99745.44;6277465;22;19933;-92
2022/09/01 11:22:14;;;;;;;;;;;;;;;10.37;100.00;99739.03;6250432;22;20274;-91
2022/09/01 11:24:45;;;;;;;;;;;;;;;10.48;100.00;99742.09;6277125;22;20270;-91
2022/09/01 11:27:12;;;;;;;;;;;;;;;10.46;100.00;99741.25;6277846;22;19917;-93
2022/09/01 11:30:01;;;;;;;;;;;;;;;10.49;100.00;99732.34;6278722;22;19907;-93
2022/09/01 11:32:37;;;;;;;;;;;;;;;10.81;100.00;99735.34;6278324;22;19911;-90
2022/09/01 11:35:04;;;;;;;;;;;;;;;10.69;100.00;99732.31;6277754;22;19995;-91
2022/09/01 11:38:02;;;;;;;;;;;;;;;10.83;100.00;99738.78;6249678;22;19915;-91
2022/09/01 11:40:28;;;;;;;;;;;;;;;10.50;100.00;99731.41;6247500;22;19990;-93
2022/09/01 11:42:56;;;;;;;;;;;;;;;10.47;100.00;99734.19;6278232;22;19960;-93
2022/09/01 11:45:30;;;;;;;;;;;;;;;10.58;100.00;99739.00;6251364;22;19972;-92
2022/09/01 11:47:57;;;;;;;;;;;;;;;10.57;100.00;99729.34;6277861;22;20292;-90
2022/09/01 11:50:26;;;;;;;;;;;;;;;10.27;100.00;99732.34;6251179;22;19957;-91
2022/09/01 11:52:59;;;;;;;;;;;;;;;10.32;100.00;99728.63;6276546;22;19990;-92
2022/09/01 11:55:35;;;;;;;;;;;;;;;10.49;100.00;99727.88;6278030;22;19911;-92
2022/09/01 11:58:02;;;;;;;;;;;;;;;10.54;100.00;99731.19;6278257;22;20282;-93
2022/09/01 12:00:31;;;;;;;;;;;;;;;10.61;100.00;99715.91;6278005;22;19917;-92
2022/09/01 12:02:56;;;;;;;;;;;;;;;10.92;100.00;99718.97;6277929;22;19919;-93
2022/09/01 12:05:32;;;;;;;;;;;;;;;10.55;100.00;99726.78;6277750;22;19941;-88
2022/09/01 12:07:58;;;;;;;;;;;;;;;10.63;100.00;99711.41;6249469;22;19915;-89
2022/09/01 12:10:34;;;;;;;;;;;;;;;10.81;100.00;99712.34;6251061;22;19908;-93
2022/09/01 12:13:01;;;;;;;;;;;;;;;10.95;100.00;99714.38;6251629;22;20000;-91
2022/09/01 12:15:30;;;;;;;;;;;;;;;10.71;100.00;99711.06;6251632;22;19919;-90
2022/09/01 12:18:09;;;;;;;;;;;;;;;10.83;100.00;99702.56;6249846;22;20285;-88
2022/09/01 12:20:37;;;;;;;;;;;;;;;10.83;100.00;99706.97;6277259;22;20373;-92
2022/09/01 12:23:02;;;;;;;;;;;;;;;10.60;100.00;99708.03;6274371;22;19915;-87
2022/09/01 12:25:32;;;;;;;;;;;;;;;10.83;100.00;99704.34;6277490;22;20315;-91
2022/09/01 12:28:01;;;;;;;;;;;;;;;10.58;100.00;99708.09;6276304;22;20346;-89
2022/09/01 12:30:27;;;;;;;;;;;;;;;10.20;100.00;99704.44;6277881;22;19915;-89
2022/09/01 12:32:53;;;;;;;;;;;;;;;10.63;100.00;99702.59;6277919;22;19989;-91
2022/09/01 12:35:25;;;;;;;;;;;;;;;10.78;100.00;99711.63;6277712;22;20204;-89
2022/09/01 12:37:51;;;;;;;;;;;;;;;10.26;100.00;99699.72;6276013;22;19911;-93
2022/09/01 12:40:44;;;;;;;;;;;;;;;10.34;100.00;99702.09;6278083;22;19926;-94
2022/09/01 12:43:09;;;;;;;;;;;;;;;10.43;100.00;99709.59;6275016;22;19942;-91
2022/09/01 12:45:40;;;;;;;;;;;;;;;10.24;100.00;99698.91;6278561;22;20273;-91
2022/09/01 12:48:06;;;;;;;;;;;;;;;10.30;100.00;99700.44;6276612;22;19915;-93
2022/09/01 12:50:33;;;;;;;;;;;;;;;10.38;100.00;99706.31;6253914;22;19947;-92
2022/09/01 12:53:00;;;;;;;;;;;;;;;10.30;100.00;99696.00;6276712;22;19934;-93
2022/09/01 12:55:27;;;;;;;;;;;;;;;10.23;100.00;99699.84;6251547;22;20311;-91
2022/09/01 12:57:54;;;;;;;;;;;;;;;10.36;100.00;99692.28;6278898;22;19911;-93
2022/09/01 13:00:22;;;;;;;;;;;;;;;10.43;100.00;99699.00;6278067;22;20335;-93
2022/09/01 13:02:48;;;;;;;;;;;;;;;10.49;100.00;99695.25;6277943;22;20216;-91
2022/09/01 13:05:36;;;;;;;;;;;;;;;10.58;100.00;99702.78;6277959;22;20274;-89
2022/09/01 13:08:10;;;;;;;;;;;;;;;10.53;100.00;99696.84;6241326;22;20220;-91
2022/09/01 13:10:40;;;;;;;;;;;;;;;10.42;100.00;99699.06;6278258;22;19911;-88
2022/09/01 13:13:06;;;;;;;;;;;;;;;10.41;100.00;99695.56;6278092;22;19942;-91
2022/09/01 13:15:32;;;;;;;;;;;;;;;10.59;100.00;99699.19;6277734;22;19919;-91
2022/09/01 13:17:57;;;;;;;;;;;;;;;10.27;100.00;99692.63;6278047;22;19912;-90
2022/09/01 13:20:23;;;;;;;;;;;;;;;10.21;100.00;99695.53;6278262;22;19915;-90
2022/09/01 13:22:48;;;;;;;;;;;;;;;10.39;100.00;99684.19;6277312;22;19911;-91
2022/09/01 13:25:17;;;;;;;;;;;;;;;10.44;100.00;99679.56;6278188;22;20327;-94
2022/09/01 13:27:46;;;;;;;;;;;;;;;10.31;100.00;99681.84;6277562;22;19911;-93
2022/09/01 13:30:14;;;;;;;;;;;;;;;10.57;100.00;99677.22;6277482;22;19921;-92
2022/09/01 13:32:39;;;;;;;;;;;;;;;10.58;100.00;99678.94;6277206;22;20311;-92
2022/09/01 13:35:05;;;;;;;;;;;;;;;10.52;100.00;99663.31;6277063;22;19915;-92
2022/09/01 13:37:30;;;;;;;;;;;;;;;10.85;100.00;99660.06;6275983;22;20353;-93
2022/09/01 13:39:56;;;;;;;;;;;;;;;10.66;100.00;99665.38;6277907;22;20319;-93
2022/09/01 13:42:21;;;;;;;;;;;;;;;10.72;100.00;99658.00;6278107;22;19939;-93
2022/09/01 13:44:46;;;;;;;;;;;;;;;10.82;100.00;99660.22;6278065;22;19918;-93
2022/09/01 13:47:12;;;;;;;;;;;;;;;10.96;100.00;99663.09;6277866;22;19915;-92
2022/09/01 13:49:37;;;;;;;;;;;;;;;10.57;100.00;99661.31;6277923;22;19918;-94
2022/09/01 13:52:02;;;;;;;;;;;;;;;10.34;100.00;99665.84;6276745;22;19915;-92
2022/09/01 13:54:27;;;;;;;;;;;;;;;10.47;100.00;99665.31;6277580;22;19918;-90
2022/09/01 13:56:53;;;;;;;;;;;;;;;10.48;100.00;99656.44;6249969;22;20377;-91
2022/09/01 13:59:18;;;;;;;;;;;;;;;10.32;100.00;99643.88;6278309;22;20281;-92
2022/09/01 14:01:45;;;;;;;;;;;;;;;10.59;100.00;99651.50;6277647;22;19922;-92
2022/09/01 14:04:11;;;;;;;;;;;;;;;10.57;100.00;99648.06;6278132;22;19911;-91
2022/09/01 14:06:40;;;;;;;;;;;;;;;10.39;100.00;99651.53;6274580;22;19965;-93
2022/09/01 14:09:05;;;;;;;;;;;;;;;10.45;100.00;99646.84;6278452;22;20329;-94
2022/09/01 14:11:31;;;;;;;;;;;;;;;10.55;100.00;99649.94;6278256;22;19914;-92
2022/09/01 14:13:56;;;;;;;;;;;;;;;10.48;100.00;99640.53;6276460;22;20247;-92
2022/09/01 14:16:21;;;;;;;;;;;;;;;10.46;100.00;99645.06;6249380;22;19911;-93
2022/09/01 14:18:47;;;;;;;;;;;;;;;10.56;100.00;99643.69;6249421;22;19911;-93
2022/09/01 14:21:14;;;;;;;;;;;;;;;10.50;100.00;99638.69;6248137;22;19916;-93
2022/09/01 14:23:40;;;;;;;;;;;;;;;10.39;100.00;99636.53;6249585;22;19907;-93
2022/09/01 14:26:08;;;;;;;;;;;;;;;10.67;100.00;99641.44;6249140;22;20425;-90
2022/09/01 14:28:33;;;;;;;;;;;;;;;10.62;100.00;99643.41;6249381;22;19911;-89
2022/09/01 14:31:04;;;;;;;;;;;;;;;10.51;100.00;99635.09;6276500;22;20326;-93
2022/09/01 14:33:30;;;;;;;;;;;;;;;10.66;100.00;99639.72;6276345;22;19911;-92
2022/09/01 14:35:56;;;;;;;;;;;;;;;10.58;100.00;99633.91;6274523;22;19992;-92
2022/09/01 14:38:21;;;;;;;;;;;;;;;10.56;100.00;99633.09;6249989;22;20275;-93
2022/09/01 14:40:47;;;;;;;;;;;;;;;10.60;100.00;99640.00;6277580;22;19938;-90
2022/09/01 14:43:13;;;;;;;;;;;;;;;10.69;100.00;99636.94;6278362;22;19998;-93
2022/09/01 14:45:39;;;;;;;;;;;;;;;10.62;100.00;99632.81;6250980;22;19911;-94
2022/09/01 14:48:04;;;;;;;;;;;;;;;10.63;100.00;99631.06;6279126;22;20343;-88
2022/09/01 14:50:33;;;;;;;;;;;;;;;10.77;100.00;99627.75;6252479;22;19911;-93
2022/09/01 14:53:00;;;;;;;;;;;;;;;10.68;100.00;99626.41;6279047;22;19911;-93
2022/09/01 14:55:28;;;;;;;;;;;;;;;10.63;100.00;99623.97;6279723;22;19919;-93
2022/09/01 14:57:53;;;;;;;;;;;;;;;10.82;100.00;99631.91;6253746;22;20307;-93
2022/09/01 15:00:19;;;;;;;;;;;;;;;10.72;100.00;99623.53;6252343;22;19961;-91
2022/09/01 15:03:03;;;;;;;;;;;;;;;10.67;100.00;99628.19;6279927;22;20238;-90
2022/09/01 15:05:29;;;;;;;;;;;;;;;10.83;100.00;99619.53;6252214;22;20323;-93
2022/09/01 15:07:54;;;;;;;;;;;;;;;10.78;100.00;99621.53;6279443;22;19915;-93
2022/09/01 15:10:34;;;;;;;;;;;;;;;10.72;100.00;99618.25;6280525;22;19912;-90
2022/09/01 15:13:02;;;;;;;;;;;;;;;10.77;100.00;99620.69;6249414;22;19915;-88
2022/09/01 15:15:28;;;;;;;;;;;;;;;10.79;100.00;99618.81;6279195;22;19922;-93
2022/09/01 15:17:54;;;;;;;;;;;;;;;10.98;100.00;99616.16;6279844;22;19911;-90
2022/09/01 15:23:04;;;;;;;;;;;;;;;10.94;100.00;99616.38;6278227;22;19918;-92
2022/09/01 15:25:29;;;;;;;;;;;;;;;10.84;100.00;99613.31;6279754;22;19915;-91
2022/09/01 15:27:54;;;;;;;;;;;;;;;10.79;100.00;99613.50;6280186;22;19991;-93
2022/09/01 15:30:20;;;;;;;;;;;;;;;10.91;100.00;99620.00;6280059;22;19934;-86
2022/09/01 15:32:47;;;;;;;;;;;;;;;10.99;100.00;99615.25;6251898;22;19915;-93
2022/09/01 15:35:13;;;;;;;;;;;;;;;10.76;100.00;99618.09;6277874;22;19923;-90
2022/09/01 15:37:38;;;;;;;;;;;;;;;10.83;100.00;99614.22;6252145;22;19934;-93
2022/09/01 15:40:04;;;;;;;;;;;;;;;10.83;100.00;99614.22;6279300;22;20303;-93
2022/09/01 15:42:30;;;;;;;;;;;;;;;10.72;100.00;99607.63;6279147;22;19918;-92
2022/09/01 15:44:56;;;;;;;;;;;;;;;10.56;100.00;99609.25;6279455;22;19915;-92
2022/09/01 15:47:21;;;;;;;;;;;;;;;10.82;100.00;99607.22;6280162;22;19918;-91
2022/09/01 15:49:46;;;;;;;;;;;;;;;10.66;100.00;99612.38;6279377;22;19911;-91
2022/09/01 15:52:41;;;;;;;;;;;;;;;;;;;;;
2022/09/01 15:55:07;;;;;;;;;;;;;;;10.64;100.00;99607.13;6276682;22;20002;-90
2022/09/01 15:57:33;;;;;;;;;;;;;;;10.74;100.00;99599.63;6277162;22;19938;-92
2022/09/01 15:59:59;;;;;;;;;;;;;;;10.62;100.00;99603.69;6278189;22;19911;-91
2022/09/01 16:02:26;;;;;;;;;;;;;;;10.52;100.00;99597.09;6278987;22;19993;-92
2022/09/01 16:04:51;;;;;;;;;;;;;;;10.66;100.00;99599.13;6278982;22;19922;-88
2022/09/01 16:10:38;;;;;;;;;;;;;;;10.61;100.00;99591.38;6221326;22;19916;-94
2022/09/01 16:13:04;;;;;;;;;;;;;;;10.50;100.00;99593.66;6279078;22;20355;-93
2022/09/01 16:15:46;;;;;;;;;;;;;;;10.61;100.00;99591.38;6277954;22;19915;-92
2022/09/01 16:18:19;;;;;;;;;;;;;;;10.66;100.00;99592.03;6278703;22;19950;-90
2022/09/01 16:23:40;;;;;;;;;;;;;;;10.54;100.00;99590.78;6277617;22;19919;-94
2022/09/01 16:26:06;;;;;;;;;;;;;;;10.61;100.00;99587.84;6278110;22;19911;-92
2022/09/01 16:28:34;;;;;;;;;;;;;;;10.67;100.00;99575.22;6277217;22;19915;-93
2022/09/01 16:31:19;;;;;;;;;;;;;;;10.69;100.00;99570.69;6249955;22;19938;-91
2022/09/01 16:33:48;;;;;;;;;;;;;;;10.68;100.00;99571.59;6249878;22;20002;-92
2022/09/01 16:36:20;;;;;;;;;;;;;;;10.62;100.00;99569.22;6276745;22;19972;-92
2022/09/01 16:38:52;;;;;;;;;;;;;;;10.52;100.00;99567.97;6278377;22;19926;-92
2022/09/01 16:41:42;;;;;;;;;;;;;;;10.36;100.00;99571.28;6279604;22;19911;-94
2022/09/01 16:44:21;;;;;;;;;;;;;;;10.40;100.00;99573.81;6277898;22;19922;-93
2022/09/01 16:47:05;;;;;;;;;;;;;;;10.61;100.00;99571.94;6250053;22;19986;-90
2022/09/01 16:49:49;;;;;;;;;;;;;;;10.58;100.00;99567.69;6275881;22;20282;-94
2022/09/01 16:52:30;;;;;;;;;;;;;;;10.42;100.00;99571.94;6275628;22;19919;-92
2022/09/01 16:54:55;;;;;;;;;;;;;;;10.32;100.00;99569.72;6249513;22;19969;-91
2022/09/01 16:57:29;;;;;;;;;;;;;;;10.48;100.00;99567.25;6275838;22;19919;-92
2022/09/01 16:59:58;;;;;;;;;;;;;;;12.12;100.00;99564.53;6276881;22;19911;-90
2022/09/01 17:02:29;;;;;;;;;;;;;;;11.07;100.00;99570.66;6253344;22;20407;-90
2022/09/01 17:05:02;;;;;;;;;;;;;;;10.87;100.00;99565.44;6277732;22;20017;-90
2022/09/01 17:07:28;;;;;;;;;;;;;;;10.99;100.00;99569.28;6278814;22;20342;-90
2022/09/01 17:09:55;;;;;;;;;;;;;;;10.83;100.00;99571.81;6279693;22;19911;-89
2022/09/01 17:12:26;;;;;;;;;;;;;;;10.75;100.00;99568.66;6280887;22;19918;-93
2022/09/01 17:15:00;;;;;;;;;;;;;;;10.86;100.00;99566.38;6280455;22;19911;-96
2022/09/01 17:17:57;;;;;;;;;;;;;;;;;;;;;
2022/09/01 17:20:26;;;;;;;;;;;;;;;10.82;100.00;99576.25;6278064;22;20370;-96
2022/09/01 17:22:55;;;;;;;;;;;;;;;10.61;100.00;99562.25;6276397;22;19918;-94
2022/09/01 17:25:31;;;;;;;;;;;;;;;10.70;100.00;99567.09;6252335;22;19911;-96
2022/09/01 17:28:02;;;;;;;;;;;;;;;10.78;100.00;99576.47;6279930;22;19969;-96
2022/09/01 17:30:30;;;;;;;;;;;;;;;10.63;100.00;99568.31;6252804;22;20239;-96
2022/09/01 17:33:18;;;;;;;;;;;;;;;10.54;100.00;99566.94;6278871;22;19957;-96
2022/09/01 17:35:52;;;;;;;;;;;;;;;10.70;100.00;99571.53;6252188;22;19911;-90
2022/09/01 17:38:18;;;;;;;;;;;;;;;10.79;100.00;99576.41;6274579;22;20589;-91
2022/09/01 17:41:05;;;;;;;;;;;;;;;10.61;100.00;99572.84;6276407;22;19999;-95
2022/09/01 17:46:36;;;;;;;;;;;;;;;10.64;100.00;99577.13;6279300;22;19918;-93
2022/09/01 17:49:30;;;;;;;;;;;;;;;10.77;100.00;99586.22;6269321;22;19946;-89
2022/09/01 17:55:05;;;;;;;;;;;;;;;10.61;100.00;99572.84;6276331;22;19964;-96
2022/09/01 17:57:38;;;;;;;;;;;;;;;10.57;100.00;99576.53;6253230;22;20346;-94
2022/09/01 18:00:03;;;;;;;;;;;;;;;10.81;100.00;99584.28;6253089;22;19914;-94
2022/09/01 18:02:40;;;;;;;;;;;;;;;10.69;100.00;99580.41;6280386;22;19911;-95
2022/09/01 18:05:08;;;;;;;;;;;;;;;10.58;100.00;99572.97;6279207;22;20249;-96
2022/09/01 18:07:51;;;;;;;;;;;;;;;10.71;100.00;99573.25;6249652;22;19962;-93
2022/09/01 18:10:20;;;;;;;;;;;;;;;10.77;100.00;99582.69;6278984;22;19908;-96
2022/09/01 18:12:49;;;;;;;;;;;;;;;10.51;100.00;99582.13;6279720;22;19911;-93
2022/09/01 18:15:20;;;;;;;;;;;;;;;10.51;100.00;99588.31;6278568;22;19950;-92
2022/09/01 18:18:04;;;;;;;;;;;;;;;10.76;100.00;99584.50;6252708;22;19919;-96
2022/09/01 18:20:35;;;;;;;;;;;;;;;10.72;100.00;99591.75;6279123;22;19917;-96
2022/09/01 18:23:05;;;;;;;;;;;;;;;10.62;100.00;99595.72;6277964;22;20319;-96
2022/09/01 18:25:43;;;;;;;;;;;;;;;10.64;100.00;99593.88;6279503;22;20346;-91
2022/09/01 18:31:21;;;;;;;;;;;;;;;10.71;100.00;99595.31;6277441;22;19973;-92
2022/09/01 18:33:49;;;;;;;;;;;;;;;10.65;100.00;99602.69;6251874;22;19982;-94
2022/09/01 18:36:34;;;;;;;;;;;;;;;10.68;100.00;99599.91;6278275;22;20239;-95
2022/09/01 18:39:08;;;;;;;;;;;;;;;10.84;100.00;99600.03;6276950;22;19907;-92
2022/09/01 18:41:48;;;;;;;;;;;;;;;10.72;100.00;99596.16;6280619;22;19994;-91
2022/09/01 18:44:16;;;;;;;;;;;;;;;10.63;100.00;99600.09;6256104;22;19907;-96
2022/09/01 18:46:42;;;;;;;;;;;;;;;10.67;100.00;99599.06;6284862;22;19911;-94
2022/09/01 18:49:26;;;;;;;;;;;;;;;10.89;100.00;99598.03;6281475;22;19914;-93
2022/09/01 18:51:51;;;;;;;;;;;;;;;10.83;100.00;99600.97;6278250;22;20017;-96
2022/09/01 18:54:19;;;;;;;;;;;;;;;10.74;100.00;99599.63;6283464;22;20433;-93
2022/09/01 18:56:56;;;;;;;;;;;;;;;10.85;100.00;99601.75;6283926;22;19911;-95
2022/09/01 18:59:24;;;;;;;;;;;;;;;10.88;100.00;99602.47;6284021;22;19908;-96
2022/09/01 19:02:00;;;;;;;;;;;;;;;10.76;100.00;99604.84;6279682;22;19911;-93
2022/09/01 19:04:44;;;;;;;;;;;;;;;10.72;100.00;99599.69;6280357;22;20484;-95
2022/09/01 19:07:22;;;;;;;;;;;;;;;10.81;100.00;99610.78;6280028;22;19915;-96
2022/09/01 19:09:53;;;;;;;;;;;;;;;10.80;100.00;99611.72;6283171;22;19907;-92
2022/09/01 19:12:31;;;;;;;;;;;;;;;10.72;100.00;99612.94;6281015;22;19964;-94
2022/09/01 19:14:57;;;;;;;;;;;;;;;10.77;100.00;99619.81;6280823;22;20266;-95
2022/09/01 19:17:34;;;;;;;;;;;;;;;10.87;100.00;99610.50;6280868;22;19926;-93
2022/09/01 19:19:59;;;;;;;;;;;;;;;10.78;100.00;99609.13;6278861;22;19998;-93
2022/09/01 19:22:34;;;;;;;;;;;;;;;10.77;100.00;99614.50;6278748;22;19961;-90
2022/09/01 19:25:44;;;;;;;;;;;;;;;10.84;100.00;99613.31;6275125;22;19919;-91
2022/09/01 19:28:02;;;;;;;;;;;;;;;10.87;100.00;99610.50;6265607;22;19911;-93
2022/09/01 19:30:28;;;;;;;;;;;;;;;10.82;100.00;99607.22;6279979;22;19915;-95
2022/09/01 19:32:55;;;;;;;;;;;;;;;10.77;100.00;99619.81;6252939;22;19911;-90
2022/09/01 19:35:21;;;;;;;;;;;;;;;10.90;100.00;99618.31;6252840;22;20380;-90
2022/09/01 19:37:49;;;;;;;;;;;;;;;10.87;100.00;99615.81;6277015;22;19951;-93
2022/09/01 19:40:16;;;;;;;;;;;;;;;10.78;100.00;99616.22;6254476;22;19919;-92
2022/09/01 19:45:45;;;;;;;;;;;;;;;10.92;100.00;99619.09;6280414;22;19933;-91
2022/09/01 19:48:29;;;;;;;;;;;;;;;10.93;100.00;99618.19;6279180;22;19915;-89
2022/09/01 19:50:58;;;;;;;;;;;;;;;10.81;100.00;99614.28;6279704;22;19911;-94
2022/09/01 19:53:26;;;;;;;;;;;;;;;10.85;100.00;99617.66;6277780;22;19911;-95
2022/09/01 19:55:55;;;;;;;;;;;;;;;10.97;100.00;99619.72;6279637;22;19965;-95
2022/09/01 19:58:43;;;;;;;;;;;;;;;10.82;100.00;99623.97;6278019;22;19915;-92
2022/09/01 20:01:10;;;;;;;;;;;;;;;10.77;100.00;99614.50;6280390;22;19953;-95
2022/09/01 20:03:36;;;;;;;;;;;;;;;10.98;100.00;99613.50;6281182;22;20286;-93
2022/09/01 20:06:20;;;;;;;;;;;;;;;10.95;100.00;99616.31;6277411;22;19915;-90
2022/09/01 20:08:52;;;;;;;;;;;;;;;10.89;100.00;99613.94;6278016;22;19943;-90